Time;durP1;ratioP1;P1;durP2;ratioP2;P2;SDS_P1;SDS_P2;PMS_P1;PMS_P2;Temp;Humidity;BMP_temperature;BMP_pressure;BME280_temperature;BME280_humidity;BME280_pressure;Samples;Min_cycle;Max_cycle;Signal;HPM_P1;HPM_P2
2022/05/21 00:00:24;;;;;;;0.10;0.10;;;15.20;99.90;;;;;;5037896;28;20279;-81
2022/05/21 00:02:50;;;;;;;0.17;0.10;;;15.20;99.90;;;;;;5038716;28;20198;-82
2022/05/21 00:05:18;;;;;;;0.10;0.10;;;15.20;99.90;;;;;;5055549;28;20181;-82
2022/05/21 00:07:44;;;;;;;0.10;0.10;;;15.20;99.90;;;;;;5070803;28;20291;-82
2022/05/21 00:10:12;;;;;;;0.23;0.23;;;15.20;99.90;;;;;;5037712;28;20279;-82
2022/05/21 00:12:38;;;;;;;0.07;0.07;;;15.20;99.90;;;;;;5057240;28;20211;-81
2022/05/21 00:15:04;;;;;;;0.30;0.30;;;15.10;99.90;;;;;;5055411;28;20345;-82
2022/05/21 00:17:29;;;;;;;0.33;0.30;;;15.10;99.90;;;;;;5054146;28;20207;-82
2022/05/21 00:19:55;;;;;;;0.50;0.30;;;15.00;99.90;;;;;;5058379;28;20191;-81
2022/05/21 00:22:20;;;;;;;0.10;0.10;;;14.90;99.90;;;;;;5035456;28;20215;-81
2022/05/21 00:24:46;;;;;;;0.20;0.20;;;14.90;99.90;;;;;;5055323;28;20276;-82
2022/05/21 00:27:12;;;;;;;0.10;0.10;;;15.00;99.90;;;;;;5056134;28;20236;-82
2022/05/21 00:29:37;;;;;;;0.60;0.30;;;14.90;99.90;;;;;;5055796;28;20298;-82
2022/05/21 00:32:03;;;;;;;0.10;0.10;;;14.90;99.90;;;;;;5055362;28;20251;-82
2022/05/21 00:34:30;;;;;;;0.10;0.10;;;14.80;99.90;;;;;;5037380;28;20247;-82
2022/05/21 00:36:56;;;;;;;0.13;0.13;;;14.80;99.90;;;;;;5036131;28;20722;-82
2022/05/21 00:39:21;;;;;;;0.60;0.20;;;14.90;99.90;;;;;;5055775;28;20195;-81
2022/05/21 00:41:48;;;;;;;0.10;0.10;;;14.90;99.90;;;;;;5035757;28;20933;-82
2022/05/21 00:44:14;;;;;;;0.10;0.10;;;14.90;99.90;;;;;;5056303;28;20895;-82
2022/05/21 00:46:41;;;;;;;0.20;0.20;;;14.90;99.90;;;;;;5054436;28;20288;-82
2022/05/21 00:49:20;;;;;;;0.20;0.20;;;14.90;99.90;;;;;;5037203;28;20551;-82
2022/05/21 00:52:07;;;;;;;0.20;0.20;;;14.90;99.90;;;;;;5054719;28;20609;-82
2022/05/21 00:54:38;;;;;;;0.10;0.10;;;14.90;99.90;;;;;;5055230;28;20182;-82
2022/05/21 00:57:22;;;;;;;0.13;0.13;;;14.80;99.90;;;;;;5033567;28;20220;-82
2022/05/21 00:59:52;;;;;;;0.20;0.20;;;14.90;99.90;;;;;;5056761;28;20258;-82
2022/05/21 01:02:38;;;;;;;0.20;0.20;;;14.90;99.90;;;;;;5036718;28;20180;-82
2022/05/21 01:05:08;;;;;;;0.23;0.20;;;14.90;99.90;;;;;;5052934;28;20236;-82
2022/05/21 01:07:37;;;;;;;0.10;0.10;;;15.00;99.90;;;;;;5035701;28;20573;-82
2022/05/21 01:10:03;;;;;;;0.20;0.20;;;15.00;99.90;;;;;;5055255;28;20192;-82
2022/05/21 01:12:34;;;;;;;0.20;0.20;;;15.00;99.90;;;;;;5053652;28;20197;-82
2022/05/21 01:15:05;;;;;;;0.10;0.10;;;14.90;99.90;;;;;;5054500;28;20214;-82
2022/05/21 01:17:32;;;;;;;3.70;0.27;;;15.00;99.90;;;;;;5052964;28;20227;-81
2022/05/21 01:20:00;;;;;;;0.37;0.27;;;14.90;99.90;;;;;;5036791;28;20186;-83
2022/05/21 01:22:38;;;;;;;0.10;0.10;;;14.80;99.90;;;;;;5054778;28;20328;-82
2022/05/21 01:25:04;;;;;;;0.30;0.30;;;14.70;99.90;;;;;;5036929;28;21531;-82
2022/05/21 01:27:30;;;;;;;0.00;0.00;;;14.70;99.90;;;;;;5039872;28;20321;-82
2022/05/21 01:29:57;;;;;;;0.20;0.20;;;14.70;99.90;;;;;;5054974;28;20191;-82
2022/05/21 01:32:23;;;;;;;0.07;0.07;;;14.70;99.90;;;;;;5035397;28;20670;-81
2022/05/21 01:34:48;;;;;;;0.13;0.13;;;14.70;99.90;;;;;;5053714;28;20195;-82
2022/05/21 01:37:14;;;;;;;0.20;0.20;;;14.70;99.90;;;;;;5051931;28;20214;-82
2022/05/21 01:39:40;;;;;;;0.10;0.10;;;14.40;99.90;;;;;;5036796;28;20189;-82
2022/05/21 01:42:06;;;;;;;0.17;0.17;;;14.30;99.90;;;;;;5034150;28;20252;-82
2022/05/21 01:44:37;;;;;;;0.10;0.10;;;14.30;99.90;;;;;;5053368;28;20204;-82
2022/05/21 01:47:04;;;;;;;0.10;0.10;;;14.10;99.90;;;;;;5036188;28;20298;-82
2022/05/21 01:49:30;;;;;;;0.10;0.10;;;14.30;99.90;;;;;;5037423;28;20350;-82
2022/05/21 01:51:55;;;;;;;0.20;0.20;;;14.20;99.90;;;;;;5034366;28;20295;-82
2022/05/21 01:54:21;;;;;;;0.37;0.37;;;14.20;99.90;;;;;;5034735;28;20190;-82
2022/05/21 01:56:47;;;;;;;0.10;0.10;;;14.00;99.90;;;;;;5053144;28;20205;-82
2022/05/21 01:59:12;;;;;;;0.17;0.17;;;14.00;99.90;;;;;;5037092;28;20188;-82
2022/05/21 02:01:38;;;;;;;0.13;0.13;;;14.10;99.90;;;;;;5035641;28;20385;-82
2022/05/21 02:04:03;;;;;;;0.30;0.30;;;14.20;99.90;;;;;;5034739;28;20211;-83
2022/05/21 02:06:29;;;;;;;0.30;0.30;;;14.20;99.90;;;;;;5035940;28;20216;-83
2022/05/21 02:08:54;;;;;;;0.20;0.20;;;14.10;99.90;;;;;;5034663;28;20202;-82
2022/05/21 02:11:20;;;;;;;0.20;0.20;;;14.10;99.90;;;;;;5053504;28;20222;-81
2022/05/21 02:13:46;;;;;;;0.10;0.10;;;14.10;99.90;;;;;;5054946;28;20287;-82
2022/05/21 02:16:11;;;;;;;0.20;0.20;;;14.10;99.90;;;;;;5035182;28;20229;-82
2022/05/21 02:18:37;;;;;;;1.10;0.40;;;14.00;99.90;;;;;;5035541;28;20586;-82
2022/05/21 02:21:03;;;;;;;0.20;0.20;;;13.90;99.90;;;;;;5036897;28;20182;-82
2022/05/21 02:23:29;;;;;;;0.10;0.10;;;13.90;99.90;;;;;;5052757;28;20188;-82
2022/05/21 02:25:58;;;;;;;0.40;0.20;;;14.00;99.90;;;;;;5035148;28;20207;-82
2022/05/21 02:28:24;;;;;;;0.30;0.30;;;14.10;99.90;;;;;;5035829;28;20340;-81
2022/05/21 02:30:49;;;;;;;0.20;0.20;;;14.10;99.90;;;;;;5035246;28;20213;-82
2022/05/21 02:33:15;;;;;;;1.60;0.20;;;14.00;99.90;;;;;;5051416;28;20310;-82
2022/05/21 02:35:40;;;;;;;0.50;0.50;;;14.10;99.90;;;;;;5036432;28;20269;-82
2022/05/21 02:40:50;;;;;;;0.20;0.20;;;14.10;99.90;;;;;;5050972;28;20187;-81
2022/05/21 02:43:16;;;;;;;0.20;0.20;;;14.20;99.90;;;;;;5033590;28;20179;-82
2022/05/21 02:45:41;;;;;;;0.43;0.20;;;14.20;99.90;;;;;;5054250;28;20629;-82
2022/05/21 02:48:07;;;;;;;0.10;0.10;;;14.20;99.90;;;;;;5054048;28;20193;-83
2022/05/21 02:50:34;;;;;;;1.50;0.60;;;14.20;99.90;;;;;;5055235;28;20652;-82
2022/05/21 02:53:05;;;;;;;0.47;0.30;;;14.10;99.90;;;;;;5051397;28;20215;-82
2022/05/21 02:55:31;;;;;;;0.20;0.20;;;13.90;99.90;;;;;;5067790;28;20182;-82
2022/05/21 02:57:57;;;;;;;0.20;0.20;;;13.90;99.90;;;;;;5053611;28;20694;-82
2022/05/21 03:00:26;;;;;;;0.20;0.20;;;13.90;99.90;;;;;;5035646;28;20202;-82
2022/05/21 03:02:52;;;;;;;0.20;0.20;;;13.80;99.90;;;;;;5033985;28;20826;-82
2022/05/21 03:05:18;;;;;;;0.23;0.23;;;13.80;99.90;;;;;;5054731;28;20206;-83
2022/05/21 03:07:46;;;;;;;0.83;0.20;;;14.00;99.90;;;;;;5035157;28;20208;-82
2022/05/21 03:10:21;;;;;;;0.20;0.20;;;14.10;99.90;;;;;;5034199;28;20793;-82
2022/05/21 03:12:54;;;;;;;0.20;0.20;;;14.20;99.90;;;;;;5051875;28;20183;-82
2022/05/21 03:15:25;;;;;;;0.10;0.10;;;14.20;99.90;;;;;;5035170;28;20184;-82
2022/05/21 03:17:50;;;;;;;0.40;0.33;;;14.10;99.90;;;;;;5033965;28;20211;-82
2022/05/21 03:20:19;;;;;;;0.10;0.10;;;14.00;99.90;;;;;;5054855;28;20175;-82
2022/05/21 03:22:44;;;;;;;0.20;0.20;;;13.90;99.90;;;;;;5033518;28;20186;-82
2022/05/21 03:25:11;;;;;;;1.80;0.60;;;13.90;99.90;;;;;;5033645;28;20209;-81
2022/05/21 03:27:37;;;;;;;0.20;0.20;;;13.90;99.90;;;;;;5034145;28;20855;-82
2022/05/21 03:30:05;;;;;;;0.30;0.30;;;13.90;99.90;;;;;;5038398;28;20535;-82
2022/05/21 03:32:31;;;;;;;0.67;0.20;;;13.60;99.90;;;;;;5056645;28;20181;-82
2022/05/21 03:34:56;;;;;;;0.10;0.10;;;13.50;99.90;;;;;;5038771;28;20190;-82
2022/05/21 03:37:22;;;;;;;0.30;0.17;;;13.50;99.90;;;;;;5036849;28;20211;-81
2022/05/21 03:39:47;;;;;;;0.27;0.23;;;13.60;99.90;;;;;;5039768;28;20185;-82
2022/05/21 03:42:13;;;;;;;0.70;0.63;;;13.50;99.90;;;;;;5037737;28;20175;-82
2022/05/21 03:44:39;;;;;;;0.10;0.10;;;13.50;99.90;;;;;;5039746;28;20272;-82
2022/05/21 03:47:04;;;;;;;0.33;0.33;;;13.60;99.90;;;;;;5056935;28;20680;-82
2022/05/21 03:49:30;;;;;;;0.10;0.10;;;13.80;99.90;;;;;;5037354;28;20274;-81
2022/05/21 03:51:55;;;;;;;0.20;0.20;;;14.50;99.90;;;;;;5037236;28;20558;-82
2022/05/21 03:54:21;;;;;;;0.20;0.20;;;15.10;99.90;;;;;;5056157;28;20196;-82
2022/05/21 03:56:47;;;;;;;0.30;0.27;;;15.90;99.90;;;;;;5039839;28;20218;-82
2022/05/21 03:59:12;;;;;;;0.10;0.10;;;16.70;99.90;;;;;;5038227;28;20528;-82
2022/05/21 04:01:40;;;;;;;0.30;0.30;;;17.40;99.90;;;;;;5037008;28;20249;-82
2022/05/21 04:04:05;;;;;;;0.10;0.10;;;17.80;99.90;;;;;;5055852;28;20198;-83
2022/05/21 04:06:31;;;;;;;0.10;0.10;;;18.40;99.90;;;;;;5039493;28;20205;-82
2022/05/21 04:08:56;;;;;;;0.10;0.10;;;18.80;99.90;;;;;;5057984;28;20207;-82
2022/05/21 04:11:22;;;;;;;0.20;0.20;;;19.00;99.90;;;;;;5038941;28;20261;-82
2022/05/21 04:13:47;;;;;;;1.10;0.20;;;18.60;99.90;;;;;;5056808;28;20183;-82
2022/05/21 04:16:13;;;;;;;0.40;0.30;;;18.30;99.90;;;;;;5048487;28;20224;-82
2022/05/21 04:18:38;;;;;;;0.10;0.10;;;17.90;99.90;;;;;;5057150;28;20287;-83
2022/05/21 04:21:04;;;;;;;0.20;0.20;;;17.60;99.90;;;;;;5036863;28;20659;-82
2022/05/21 04:23:30;;;;;;;0.20;0.20;;;17.20;99.90;;;;;;5036809;28;20203;-82
2022/05/21 04:25:55;;;;;;;0.37;0.23;;;16.90;99.90;;;;;;5055399;28;20219;-82
2022/05/21 04:28:21;;;;;;;0.50;0.30;;;16.80;99.90;;;;;;5039039;28;20199;-81
2022/05/21 04:30:46;;;;;;;0.10;0.10;;;16.70;99.90;;;;;;5038833;28;20297;-82
2022/05/21 04:33:12;;;;;;;0.10;0.10;;;16.60;99.90;;;;;;5056275;28;20991;-82
2022/05/21 04:38:22;;;;;;;0.20;0.20;;;16.40;99.90;;;;;;5057386;28;20277;-82
2022/05/21 04:40:47;;;;;;;0.10;0.10;;;16.20;99.90;;;;;;5036037;28;20188;-82
2022/05/21 04:43:13;;;;;;;0.10;0.10;;;16.10;99.90;;;;;;5048075;28;20595;-83
2022/05/21 04:45:39;;;;;;;0.00;0.00;;;15.80;99.90;;;;;;5034348;28;20210;-83
2022/05/21 04:48:07;;;;;;;0.30;0.30;;;15.70;99.90;;;;;;5053668;28;20271;-83
2022/05/21 04:50:35;;;;;;;0.20;0.20;;;15.80;99.90;;;;;;5035054;28;20646;-83
2022/05/21 04:53:01;;;;;;;0.20;0.20;;;15.90;99.90;;;;;;5033310;28;20184;-83
2022/05/21 04:55:26;;;;;;;0.10;0.10;;;15.90;99.90;;;;;;5037395;28;20245;-81
2022/05/21 04:57:52;;;;;;;0.20;0.20;;;16.00;99.90;;;;;;5053466;28;20213;-82
2022/05/21 05:00:18;;;;;;;0.33;0.33;;;16.00;99.90;;;;;;5052888;28;20216;-81
2022/05/21 05:02:43;;;;;;;0.73;0.37;;;15.90;99.90;;;;;;5035070;28;20200;-81
2022/05/21 05:05:09;;;;;;;0.57;0.30;;;16.00;99.90;;;;;;5036033;28;20202;-82
2022/05/21 05:07:38;;;;;;;0.10;0.10;;;15.90;99.90;;;;;;5036989;28;20210;-82
2022/05/21 05:10:04;;;;;;;0.10;0.10;;;16.00;99.90;;;;;;5054181;28;20246;-83
2022/05/21 05:12:31;;;;;;;0.37;0.37;;;16.00;99.90;;;;;;5033912;28;21077;-80
2022/05/21 05:14:57;;;;;;;0.30;0.20;;;16.10;99.90;;;;;;5033835;28;20226;-81
2022/05/21 05:17:22;;;;;;;0.10;0.10;;;16.00;99.90;;;;;;5035326;28;20208;-81
2022/05/21 05:19:48;;;;;;;0.20;0.20;;;16.00;99.90;;;;;;5053160;28;20184;-81
2022/05/21 05:22:14;;;;;;;0.13;0.13;;;15.90;99.90;;;;;;5035136;28;20176;-81
2022/05/21 05:24:39;;;;;;;0.17;0.17;;;15.90;99.90;;;;;;5052512;28;20278;-80
2022/05/21 05:27:06;;;;;;;0.20;0.20;;;15.80;99.90;;;;;;5053375;28;20309;-81
2022/05/21 05:29:31;;;;;;;0.10;0.10;;;15.80;99.90;;;;;;5065181;28;20183;-82
2022/05/21 05:31:57;;;;;;;0.10;0.10;;;15.70;99.90;;;;;;5050849;28;20250;-81
2022/05/21 05:34:23;;;;;;;0.10;0.10;;;15.70;99.90;;;;;;5034096;28;20184;-81
2022/05/21 05:36:49;;;;;;;0.13;0.13;;;15.70;99.90;;;;;;5035655;28;20256;-82
2022/05/21 05:39:16;;;;;;;0.10;0.10;;;15.70;99.90;;;;;;5053656;28;20229;-82
2022/05/21 05:41:42;;;;;;;1.57;0.23;;;15.90;99.90;;;;;;5036309;28;20213;-82
2022/05/21 05:44:07;;;;;;;0.10;0.10;;;15.90;99.90;;;;;;5037187;28;20188;-82
2022/05/21 05:46:33;;;;;;;0.20;0.20;;;16.10;99.90;;;;;;5036511;28;20282;-82
2022/05/21 05:48:59;;;;;;;0.20;0.20;;;16.10;99.90;;;;;;5036229;28;20188;-82
2022/05/21 05:51:26;;;;;;;0.10;0.10;;;16.00;99.90;;;;;;5054502;28;20185;-81
2022/05/21 05:53:52;;;;;;;0.10;0.10;;;16.00;99.90;;;;;;5034037;28;20192;-82
2022/05/21 05:56:18;;;;;;;0.10;0.10;;;16.20;99.90;;;;;;5036109;28;20210;-81
2022/05/21 06:01:27;;;;;;;1.90;0.30;;;16.30;99.90;;;;;;5053392;28;20266;-82
2022/05/21 06:03:54;;;;;;;0.20;0.20;;;16.50;99.90;;;;;;5036708;28;20199;-82
2022/05/21 06:06:20;;;;;;;0.37;0.37;;;16.60;99.90;;;;;;5054208;28;20239;-81
2022/05/21 06:08:46;;;;;;;0.10;0.10;;;16.70;99.90;;;;;;5036904;28;20754;-82
2022/05/21 06:11:13;;;;;;;0.37;0.37;;;16.80;99.90;;;;;;5037070;28;20524;-82
2022/05/21 06:13:38;;;;;;;0.43;0.20;;;16.90;99.90;;;;;;5033236;28;20217;-82
2022/05/21 06:16:04;;;;;;;0.10;0.10;;;16.90;99.90;;;;;;5036412;28;20271;-82
2022/05/21 06:18:31;;;;;;;0.10;0.10;;;17.10;99.90;;;;;;5055272;28;20242;-81
2022/05/21 06:21:01;;;;;;;0.17;0.17;;;17.20;99.90;;;;;;5055299;28;20655;-82
2022/05/21 06:23:27;;;;;;;0.10;0.10;;;17.10;99.90;;;;;;5056496;28;20238;-81
2022/05/21 06:25:53;;;;;;;0.13;0.13;;;17.30;99.90;;;;;;5040220;28;20209;-81
2022/05/21 06:28:19;;;;;;;0.20;0.20;;;17.40;99.90;;;;;;5055648;28;20189;-81
2022/05/21 06:30:45;;;;;;;0.27;0.20;;;17.40;99.90;;;;;;5053534;28;20290;-82
2022/05/21 06:33:28;;;;;;;0.00;0.00;;;17.70;99.90;;;;;;5052252;28;20213;-81
2022/05/21 06:36:27;;;;;;;0.20;0.20;;;18.00;99.90;;;;;;5035509;28;20292;-82
2022/05/21 06:38:52;;;;;;;0.10;0.10;;;18.30;99.90;;;;;;5014388;28;20745;-82
2022/05/21 06:41:18;;;;;;;0.10;0.10;;;18.40;99.90;;;;;;5030491;28;20182;-81
2022/05/21 06:43:43;;;;;;;0.10;0.10;;;18.40;99.90;;;;;;5035677;28;21229;-82
2022/05/21 06:46:09;;;;;;;0.17;0.17;;;18.20;99.90;;;;;;5055243;28;20230;-82
2022/05/21 06:48:35;;;;;;;0.20;0.17;;;18.00;99.90;;;;;;5034584;28;20201;-81
2022/05/21 06:51:05;;;;;;;0.33;0.10;;;17.80;99.90;;;;;;5050670;28;20185;-81
2022/05/21 06:53:31;;;;;;;0.10;0.10;;;18.10;99.90;;;;;;5032463;28;20204;-81
2022/05/21 06:55:57;;;;;;;0.47;0.47;;;18.00;99.90;;;;;;5033872;28;20216;-81
2022/05/21 06:58:22;;;;;;;0.20;0.20;;;17.80;99.90;;;;;;5036976;28;20209;-82
2022/05/21 07:00:48;;;;;;;0.30;0.30;;;17.90;99.90;;;;;;5068446;28;20738;-82
2022/05/21 07:03:13;;;;;;;0.10;0.10;;;18.20;99.90;;;;;;5036094;28;20208;-82
2022/05/21 07:08:26;;;;;;;0.10;0.10;;;18.60;99.90;;;;;;5056553;28;20222;-80
2022/05/21 07:10:52;;;;;;;0.20;0.20;;;18.80;99.90;;;;;;5035015;28;20698;-80
2022/05/21 07:13:20;;;;;;;0.40;0.20;;;19.10;99.90;;;;;;5056286;28;20196;-80
2022/05/21 07:15:47;;;;;;;1.80;0.33;;;19.10;99.90;;;;;;5035240;28;20192;-80
2022/05/21 07:18:19;;;;;;;0.30;0.30;;;19.10;99.90;;;;;;5054868;28;20201;-80
2022/05/21 07:20:45;;;;;;;1.90;0.40;;;18.80;99.90;;;;;;5055546;28;20234;-80
2022/05/21 07:23:11;;;;;;;0.30;0.30;;;18.60;99.90;;;;;;5055324;28;20185;-80
2022/05/21 07:25:37;;;;;;;0.20;0.20;;;18.50;99.90;;;;;;5054439;28;20194;-80
2022/05/21 07:28:03;;;;;;;0.20;0.20;;;18.40;99.90;;;;;;5037304;28;20705;-80
2022/05/21 07:30:29;;;;;;;0.20;0.20;;;18.30;99.90;;;;;;5055855;28;20185;-79
2022/05/21 07:32:55;;;;;;;0.23;0.23;;;18.10;99.90;;;;;;5036511;28;21020;-80
2022/05/21 07:35:23;;;;;;;0.17;0.17;;;17.90;99.90;;;;;;5055793;28;20192;-80
2022/05/21 07:37:50;;;;;;;0.27;0.27;;;17.90;99.90;;;;;;5055216;28;20201;-78
2022/05/21 07:40:16;;;;;;;1.20;0.57;;;17.80;99.90;;;;;;5035444;28;20196;-80
2022/05/21 07:42:43;;;;;;;1.03;0.20;;;17.70;99.90;;;;;;5054872;28;22113;-80
2022/05/21 07:45:11;;;;;;;0.30;0.30;;;17.90;99.90;;;;;;5053057;28;20566;-80
2022/05/21 07:47:37;;;;;;;0.20;0.20;;;18.10;99.90;;;;;;5054706;28;20228;-80
2022/05/21 07:50:03;;;;;;;0.73;0.63;;;18.20;99.90;;;;;;5054945;28;20229;-80
2022/05/21 07:52:29;;;;;;;0.10;0.10;;;18.10;99.90;;;;;;5051954;28;20243;-80
2022/05/21 07:54:55;;;;;;;1.10;1.03;;;18.10;99.90;;;;;;5037965;28;20297;-81
2022/05/21 07:57:21;;;;;;;0.10;0.10;;;18.20;99.90;;;;;;5055884;28;20296;-80
2022/05/21 07:59:46;;;;;;;0.30;0.30;;;18.40;99.90;;;;;;5036632;28;20267;-81
2022/05/21 08:02:15;;;;;;;0.20;0.20;;;18.70;99.90;;;;;;5035371;28;20201;-81
2022/05/21 08:04:42;;;;;;;0.20;0.20;;;19.00;99.90;;;;;;5037408;28;20270;-81
2022/05/21 08:07:08;;;;;;;0.10;0.10;;;19.50;99.90;;;;;;5056445;28;20205;-82
2022/05/21 08:09:33;;;;;;;0.20;0.20;;;19.50;99.90;;;;;;5051370;28;20205;-80
2022/05/21 08:11:59;;;;;;;0.10;0.10;;;19.50;99.90;;;;;;5053804;28;20181;-82
2022/05/21 08:14:25;;;;;;;0.10;0.10;;;19.50;99.90;;;;;;5055561;28;20566;-81
2022/05/21 08:16:50;;;;;;;0.27;0.27;;;19.60;99.90;;;;;;5036994;28;20205;-82
2022/05/21 08:19:16;;;;;;;0.30;0.30;;;19.60;99.90;;;;;;5037397;28;20196;-80
2022/05/21 08:21:43;;;;;;;0.20;0.20;;;19.70;99.90;;;;;;5053686;28;20192;-81
2022/05/21 08:26:56;;;;;;;0.10;0.10;;;20.10;99.90;;;;;;5053513;28;20216;-81
2022/05/21 08:29:22;;;;;;;0.20;0.20;;;20.10;99.90;;;;;;5035378;28;20190;-81
2022/05/21 08:31:47;;;;;;;0.87;0.87;;;20.40;99.90;;;;;;5050777;28;20189;-80
2022/05/21 08:34:13;;;;;;;0.10;0.10;;;20.00;99.90;;;;;;5036959;28;20190;-80
2022/05/21 08:36:39;;;;;;;0.20;0.20;;;20.00;99.90;;;;;;5035914;28;20210;-81
2022/05/21 08:39:04;;;;;;;0.30;0.30;;;20.00;99.90;;;;;;5055698;28;20185;-82
2022/05/21 08:41:33;;;;;;;0.10;0.10;;;20.30;99.90;;;;;;5038870;28;20205;-82
2022/05/21 08:44:12;;;;;;;0.10;0.10;;;20.40;99.90;;;;;;5056164;28;20185;-82
2022/05/21 08:46:59;;;;;;;0.83;0.40;;;20.60;99.90;;;;;;5071726;28;20196;-81
2022/05/21 08:49:34;;;;;;;0.10;0.10;;;20.60;99.90;;;;;;5056931;28;20179;-81
2022/05/21 08:52:18;;;;;;;3.17;0.43;;;20.80;99.90;;;;;;5056537;28;20226;-81
2022/05/21 08:54:46;;;;;;;0.30;0.30;;;20.70;99.90;;;;;;5071795;28;20226;-81
2022/05/21 08:57:25;;;;;;;0.20;0.20;;;20.70;99.90;;;;;;5054953;28;20304;-82
2022/05/21 08:59:58;;;;;;;0.20;0.20;;;20.90;99.90;;;;;;5036706;28;20188;-82
2022/05/21 09:02:30;;;;;;;0.13;0.13;;;21.00;99.90;;;;;;5035164;28;20248;-81
2022/05/21 09:04:56;;;;;;;0.20;0.20;;;21.00;99.90;;;;;;5051340;28;20192;-82
2022/05/21 09:07:26;;;;;;;1.00;0.30;;;21.00;99.90;;;;;;5053563;28;20208;-82
2022/05/21 09:10:08;;;;;;;0.20;0.20;;;21.30;99.90;;;;;;5052345;28;20197;-81
2022/05/21 09:12:53;;;;;;;0.20;0.20;;;21.40;99.90;;;;;;5047165;28;20189;-80
2022/05/21 09:18:10;;;;;;;0.37;0.30;;;21.00;99.90;;;;;;5052275;28;20248;-79
2022/05/21 09:20:49;;;;;;;0.10;0.10;;;20.70;99.90;;;;;;5053027;28;22098;-80
2022/05/21 09:23:14;;;;;;;0.10;0.10;;;20.60;99.90;;;;;;5055922;28;20243;-81
2022/05/21 09:25:40;;;;;;;0.20;0.10;;;21.00;99.90;;;;;;5053553;28;20185;-80
2022/05/21 09:28:11;;;;;;;0.10;0.10;;;21.10;99.90;;;;;;5052588;28;20189;-80
2022/05/21 09:30:42;;;;;;;0.10;0.10;;;21.10;99.90;;;;;;5054342;28;20633;-80
2022/05/21 09:33:23;;;;;;;0.10;0.10;;;21.20;99.90;;;;;;5035520;28;20186;-80
2022/05/21 09:35:59;;;;;;;0.20;0.20;;;21.00;99.90;;;;;;5054832;28;20227;-80
2022/05/21 09:38:30;;;;;;;1.37;1.27;;;20.70;99.90;;;;;;5055289;28;20324;-80
2022/05/21 09:41:19;;;;;;;0.20;0.20;;;20.60;99.90;;;;;;5053518;28;20193;-80
2022/05/21 09:47:23;;;;;;;0.97;0.23;;;20.20;99.90;;;;;;5047368;28;20232;-80
2022/05/21 09:50:00;;;;;;;1.80;0.40;;;20.30;99.90;;;;;;5037145;28;20203;-80
2022/05/21 09:52:30;;;;;;;0.10;0.10;;;20.30;99.90;;;;;;5050625;28;20193;-79
2022/05/21 09:54:55;;;;;;;0.17;0.17;;;20.70;99.90;;;;;;5053568;28;20189;-81
2022/05/21 09:57:26;;;;;;;0.10;0.10;;;20.80;99.90;;;;;;5035946;28;20592;-80
2022/05/21 10:00:19;;;;;;;0.23;0.20;;;20.70;99.90;;;;;;5053903;28;20220;-80
2022/05/21 10:02:49;;;;;;;0.27;0.27;;;20.60;99.90;;;;;;5069026;28;20268;-80
2022/05/21 10:05:26;;;;;;;1.47;1.03;;;21.00;99.90;;;;;;5035152;28;20195;-80
2022/05/21 10:11:07;;;;;;;1.70;0.57;;;20.90;99.90;;;;;;5054600;28;20648;-80
2022/05/21 10:13:51;;;;;;;0.23;0.20;;;20.50;99.90;;;;;;5051731;28;20185;-80
2022/05/21 10:16:35;;;;;;;0.20;0.13;;;20.60;99.90;;;;;;5034671;28;20219;-80
2022/05/21 10:19:06;;;;;;;0.10;0.10;;;20.80;99.90;;;;;;5054294;28;20569;-80
2022/05/21 10:22:09;;;;;;;4.23;0.40;;;21.30;99.90;;;;;;5037725;28;20192;-80
2022/05/21 10:24:54;;;;;;;0.30;0.20;;;21.40;99.90;;;;;;5055874;28;20181;-80
2022/05/21 10:27:37;;;;;;;0.37;0.37;;;21.70;99.90;;;;;;5056318;28;20215;-80
2022/05/21 10:30:06;;;;;;;0.20;0.20;;;21.70;99.90;;;;;;5053464;28;20319;-80
2022/05/21 10:33:15;;;;;;;0.20;0.20;;;21.70;99.90;;;;;;5052331;28;20194;-80
2022/05/21 10:36:12;;;;;;;0.20;0.20;;;21.60;99.90;;;;;;5051415;28;20178;-80
2022/05/21 10:38:53;;;;;;;0.10;0.10;;;21.70;99.90;;;;;;5051958;28;20205;-80
2022/05/21 10:41:43;;;;;;;0.60;0.60;;;21.90;99.90;;;;;;5059082;28;20208;-80
2022/05/21 10:44:28;;;;;;;0.20;0.20;;;22.00;99.90;;;;;;5056299;28;20720;-80
2022/05/21 10:47:04;;;;;;;0.10;0.10;;;21.90;99.90;;;;;;5053514;28;20637;-80
2022/05/21 10:50:11;;;;;;;0.20;0.20;;;22.10;99.90;;;;;;5052708;28;20232;-80
2022/05/21 10:52:55;;;;;;;0.10;0.10;;;22.00;99.90;;;;;;5050849;28;20193;-80
2022/05/21 10:55:30;;;;;;;0.20;0.20;;;21.90;99.90;;;;;;5037265;28;20185;-80
2022/05/21 10:58:22;;;;;;;1.03;0.40;;;21.80;99.90;;;;;;5036395;28;20274;-80
2022/05/21 11:01:25;;;;;;;0.30;0.30;;;22.20;99.90;;;;;;5051925;28;20189;-80
2022/05/21 11:04:09;;;;;;;0.10;0.10;;;22.40;99.90;;;;;;5053700;28;20180;-80
2022/05/21 11:07:12;;;;;;;1.07;0.47;;;22.60;99.90;;;;;;5054603;28;20259;-80
2022/05/21 11:09:51;;;;;;;0.17;0.17;;;22.60;99.90;;;;;;5054808;28;20208;-80
2022/05/21 11:12:33;;;;;;;1.43;0.30;;;22.60;99.90;;;;;;5052271;28;20188;-80
2022/05/21 11:15:09;;;;;;;0.20;0.20;;;22.70;99.90;;;;;;5051952;28;20700;-80
2022/05/21 11:17:55;;;;;;;0.43;0.43;;;22.60;99.90;;;;;;5053752;28;20200;-80
2022/05/21 11:20:30;;;;;;;0.30;0.30;;;22.80;99.90;;;;;;5053262;28;20181;-80
2022/05/21 11:23:06;;;;;;;0.53;0.30;;;23.00;99.90;;;;;;5053507;28;20318;-80
2022/05/21 11:25:39;;;;;;;0.30;0.30;;;23.40;99.90;;;;;;5036424;28;20177;-80
2022/05/21 11:28:32;;;;;;;0.33;0.33;;;22.90;99.90;;;;;;5053636;28;20185;-80
2022/05/21 11:37:19;;;;;;;0.20;0.20;;;22.80;99.90;;;;;;5052771;28;20203;-79
2022/05/21 11:39:35;;;;;;;0.20;0.20;;;23.10;99.90;;;;;;5055191;28;20250;-80
2022/05/21 11:42:12;;;;;;;0.23;0.23;;;23.20;99.90;;;;;;5036626;28;20224;-80
2022/05/21 11:44:58;;;;;;;0.33;0.33;;;23.40;99.90;;;;;;5037259;28;20267;-80
2022/05/21 11:47:42;;;;;;;0.50;0.50;;;23.00;99.90;;;;;;5036515;28;20205;-80
2022/05/21 11:50:14;;;;;;;0.20;0.20;;;22.60;99.90;;;;;;5039000;28;20184;-80
2022/05/21 11:52:39;;;;;;;0.20;0.20;;;22.60;99.90;;;;;;5058194;28;20178;-80
2022/05/21 11:55:11;;;;;;;0.10;0.10;;;22.50;99.90;;;;;;5053510;28;20185;-80
2022/05/21 11:57:43;;;;;;;0.20;0.20;;;22.60;99.90;;;;;;5055160;28;20728;-80
2022/05/21 12:00:18;;;;;;;0.20;0.20;;;23.00;99.90;;;;;;5056854;28;20192;-80
2022/05/21 12:02:56;;;;;;;0.50;0.13;;;22.60;99.90;;;;;;5056656;28;20181;-80
2022/05/21 12:05:33;;;;;;;0.20;0.20;;;22.90;99.90;;;;;;5036974;28;20245;-79
2022/05/21 12:08:22;;;;;;;0.23;0.23;;;22.90;99.90;;;;;;5037543;28;20209;-80
2022/05/21 12:11:09;;;;;;;0.10;0.10;;;23.00;99.90;;;;;;5040125;28;20559;-80
2022/05/21 12:13:34;;;;;;;0.20;0.20;;;22.80;99.90;;;;;;5054058;28;20178;-79
2022/05/21 12:16:19;;;;;;;0.10;0.10;;;22.80;99.90;;;;;;5038511;28;20228;-80
2022/05/21 12:18:54;;;;;;;1.00;0.30;;;22.90;99.90;;;;;;5053123;28;20204;-79
2022/05/21 12:21:33;;;;;;;0.30;0.30;;;23.00;99.90;;;;;;5053780;28;20767;-79
2022/05/21 12:24:23;;;;;;;0.10;0.10;;;23.10;99.90;;;;;;5056873;28;20177;-80
2022/05/21 12:27:02;;;;;;;0.20;0.20;;;22.70;99.90;;;;;;5052799;28;20665;-80
2022/05/21 12:29:31;;;;;;;0.10;0.10;;;22.60;99.90;;;;;;5054524;28;20185;-79
2022/05/21 12:32:00;;;;;;;0.67;0.40;;;22.60;99.90;;;;;;5053807;28;20679;-79
2022/05/21 12:34:28;;;;;;;0.20;0.20;;;22.40;99.90;;;;;;5051345;28;20176;-79
2022/05/21 12:37:32;;;;;;;0.13;0.13;;;22.40;99.90;;;;;;5036941;28;20205;-79
2022/05/21 12:40:01;;;;;;;0.20;0.20;;;22.80;99.90;;;;;;5054610;28;21085;-80
2022/05/21 12:42:39;;;;;;;0.87;0.63;;;23.10;99.90;;;;;;5053575;28;20188;-79
2022/05/21 12:45:06;;;;;;;0.33;0.33;;;23.10;99.90;;;;;;5054489;28;20713;-79
2022/05/21 12:47:35;;;;;;;1.43;0.20;;;22.90;99.90;;;;;;5050053;28;20205;-80
2022/05/21 12:50:14;;;;;;;0.20;0.20;;;22.50;99.90;;;;;;5052692;28;20737;-80
2022/05/21 12:52:48;;;;;;;1.53;1.47;;;22.50;99.90;;;;;;5035231;28;20200;-79
2022/05/21 12:55:30;;;;;;;0.20;0.20;;;22.40;99.90;;;;;;5054211;28;20673;-80
2022/05/21 12:58:16;;;;;;;0.47;0.27;;;22.30;99.90;;;;;;5056088;28;20227;-80
2022/05/21 13:00:51;;;;;;;0.10;0.10;;;22.40;99.90;;;;;;5038332;28;20193;-79
2022/05/21 13:03:18;;;;;;;3.30;0.27;;;22.40;99.90;;;;;;5058450;28;20183;-80
2022/05/21 13:06:00;;;;;;;0.37;0.30;;;22.30;99.90;;;;;;5058065;28;20521;-80
2022/05/21 13:08:28;;;;;;;0.10;0.10;;;22.50;99.90;;;;;;5038671;28;20207;-80
2022/05/21 13:11:10;;;;;;;0.37;0.37;;;22.80;99.90;;;;;;5054642;28;20193;-81
2022/05/21 13:13:39;;;;;;;0.20;0.20;;;22.80;99.90;;;;;;5052582;28;20761;-85
2022/05/21 13:16:08;;;;;;;0.10;0.10;;;22.80;99.90;;;;;;5052383;28;20591;-82
2022/05/21 13:18:43;;;;;;;0.17;0.17;;;22.90;99.90;;;;;;5055588;28;20217;-79
2022/05/21 13:21:27;;;;;;;0.13;0.13;;;22.80;99.90;;;;;;5033186;28;20177;-80
2022/05/21 13:24:12;;;;;;;0.10;0.10;;;23.00;99.90;;;;;;5051122;28;20189;-80
2022/05/21 13:26:39;;;;;;;0.20;0.20;;;23.10;99.90;;;;;;5052591;28;20209;-79
2022/05/21 13:29:21;;;;;;;0.20;0.20;;;23.00;99.90;;;;;;5052155;28;20191;-79
2022/05/21 13:31:48;;;;;;;1.07;0.30;;;23.10;99.90;;;;;;5054493;28;20185;-79
2022/05/21 13:34:18;;;;;;;0.20;0.20;;;23.10;99.90;;;;;;5052392;28;20936;-79